Main page
METAR-TAF:

METAR-TAF

Airports :

Campina Grande Airport

Campina Grande, Paraíba, Brazil

latitude: 07-13S, longitude: 035-53W, elevation: 548 m

Current weather observation

The report was made 33 minutes ago, at 10:00 UTC
Wind 5 kt from the South/Southwest
Temperature 23°C
Humidity 89%
Pressure 1015 hPa
Visibility 10 km or more
Scattered clouds at a height of 2000 ft

METAR: SBKG 201000Z 21005KT 9999 SCT020 23/21 Q1015

Time: 07:33 (10:33 UTC)

Forecast

The report was made 8 hours and 33 minutes ago, at 02:00 UTC
Forecast valid from 20 at 06 UTC to 20 at 18 UTC
Wind 8 kt from the East
Visibility: 9000 m
Broken clouds at a height of 900 ft
Temporary
from 20 at 06 UTC to 20 at 09 UTC
Visibility: 4500 m
mist
Becoming
from 20 at 09 UTC to 20 at 11 UTC
Broken clouds at a height of 2000 ft

TAF: SBKG 200200Z 2006/2018 10008KT 9000 BKN009 TN23/2008Z TX29/2017Z TEMPO 2006/2009 4500 BR BECMG 2009/2011 BKN020 RMK PEA

Weather observations and forecasts of more than 4000 airports (METAR and TAF reports).

The available stations are represented by yellow and red dots on the map.

Hover mouse over dot to see the name of the station.

Then click to see weather observations and forecasts.

To change the map : click on the green buttons with a black cross to zoom in, on the green button with a dash to zoom out, or on the green arrows for adjacent maps.


METAR-TAF: